sensor_id;sensor_type;location;lat;lon;timestamp;P1;durP1;ratioP1;P2;durP2;ratioP2
20894;SDS011;10607;42.066;24.742;2023-08-24T00:00:44;14.63;;;8.40;;
20894;SDS011;10607;42.066;24.742;2023-08-24T00:03:10;11.68;;;9.07;;
20894;SDS011;10607;42.066;24.742;2023-08-24T00:05:35;18.67;;;9.25;;
20894;SDS011;10607;42.066;24.742;2023-08-24T00:08:04;9.63;;;8.48;;
20894;SDS011;10607;42.066;24.742;2023-08-24T00:10:29;11.52;;;8.65;;
20894;SDS011;10607;42.066;24.742;2023-08-24T00:12:54;14.10;;;9.10;;
20894;SDS011;10607;42.066;24.742;2023-08-24T00:15:20;13.35;;;8.45;;
20894;SDS011;10607;42.066;24.742;2023-08-24T00:17:45;10.57;;;8.70;;
20894;SDS011;10607;42.066;24.742;2023-08-24T00:20:10;12.70;;;8.38;;
20894;SDS011;10607;42.066;24.742;2023-08-24T00:22:37;16.67;;;8.70;;
20894;SDS011;10607;42.066;24.742;2023-08-24T00:25:03;10.25;;;8.80;;
20894;SDS011;10607;42.066;24.742;2023-08-24T00:27:28;10.73;;;8.80;;
20894;SDS011;10607;42.066;24.742;2023-08-24T00:29:53;12.10;;;8.68;;
20894;SDS011;10607;42.066;24.742;2023-08-24T00:32:19;11.35;;;8.18;;
20894;SDS011;10607;42.066;24.742;2023-08-24T00:34:44;12.02;;;8.80;;
20894;SDS011;10607;42.066;24.742;2023-08-24T00:37:09;12.50;;;8.88;;
20894;SDS011;10607;42.066;24.742;2023-08-24T00:39:35;10.55;;;8.73;;
20894;SDS011;10607;42.066;24.742;2023-08-24T00:42:00;13.68;;;8.75;;
20894;SDS011;10607;42.066;24.742;2023-08-24T00:44:25;12.90;;;9.20;;
20894;SDS011;10607;42.066;24.742;2023-08-24T00:46:51;9.68;;;8.60;;
20894;SDS011;10607;42.066;24.742;2023-08-24T00:49:16;11.02;;;8.27;;
20894;SDS011;10607;42.066;24.742;2023-08-24T00:51:42;12.68;;;9.20;;
20894;SDS011;10607;42.066;24.742;2023-08-24T00:54:07;14.70;;;9.85;;
20894;SDS011;10607;42.066;24.742;2023-08-24T00:56:32;11.68;;;8.68;;
20894;SDS011;10607;42.066;24.742;2023-08-24T00:58:58;12.95;;;9.48;;
20894;SDS011;10607;42.066;24.742;2023-08-24T01:01:23;11.93;;;8.70;;
20894;SDS011;10607;42.066;24.742;2023-08-24T01:03:49;14.80;;;8.65;;
20894;SDS011;10607;42.066;24.742;2023-08-24T01:06:15;10.90;;;8.82;;
20894;SDS011;10607;42.066;24.742;2023-08-24T01:08:40;10.25;;;8.18;;
20894;SDS011;10607;42.066;24.742;2023-08-24T01:11:10;10.77;;;8.63;;
20894;SDS011;10607;42.066;24.742;2023-08-24T01:16:08;8.93;;;7.95;;
20894;SDS011;10607;42.066;24.742;2023-08-24T01:18:35;11.05;;;8.65;;
20894;SDS011;10607;42.066;24.742;2023-08-24T01:21:01;12.32;;;8.82;;
20894;SDS011;10607;42.066;24.742;2023-08-24T01:23:41;11.18;;;8.48;;
20894;SDS011;10607;42.066;24.742;2023-08-24T01:26:17;9.65;;;8.07;;
20894;SDS011;10607;42.066;24.742;2023-08-24T01:28:44;10.80;;;8.63;;
20894;SDS011;10607;42.066;24.742;2023-08-24T01:31:09;12.35;;;8.27;;
20894;SDS011;10607;42.066;24.742;2023-08-24T01:33:34;11.45;;;8.93;;
20894;SDS011;10607;42.066;24.742;2023-08-24T01:36:00;16.92;;;9.90;;
20894;SDS011;10607;42.066;24.742;2023-08-24T01:38:25;12.65;;;8.77;;
20894;SDS011;10607;42.066;24.742;2023-08-24T01:43:20;11.60;;;8.75;;
20894;SDS011;10607;42.066;24.742;2023-08-24T01:45:46;14.23;;;9.20;;
20894;SDS011;10607;42.066;24.742;2023-08-24T01:48:12;13.45;;;8.88;;
20894;SDS011;10607;42.066;24.742;2023-08-24T01:50:38;12.65;;;9.35;;
20894;SDS011;10607;42.066;24.742;2023-08-24T01:53:03;12.88;;;8.90;;
20894;SDS011;10607;42.066;24.742;2023-08-24T01:55:29;15.70;;;8.65;;
20894;SDS011;10607;42.066;24.742;2023-08-24T01:57:55;13.32;;;9.10;;
20894;SDS011;10607;42.066;24.742;2023-08-24T02:00:20;12.52;;;8.98;;
20894;SDS011;10607;42.066;24.742;2023-08-24T02:02:46;10.02;;;8.70;;
20894;SDS011;10607;42.066;24.742;2023-08-24T02:05:11;13.65;;;8.52;;
20894;SDS011;10607;42.066;24.742;2023-08-24T02:07:38;10.20;;;8.75;;
20894;SDS011;10607;42.066;24.742;2023-08-24T02:10:03;10.85;;;8.80;;
20894;SDS011;10607;42.066;24.742;2023-08-24T02:12:29;11.75;;;8.25;;
20894;SDS011;10607;42.066;24.742;2023-08-24T02:14:54;11.10;;;8.88;;
20894;SDS011;10607;42.066;24.742;2023-08-24T02:17:19;10.02;;;8.07;;
20894;SDS011;10607;42.066;24.742;2023-08-24T02:19:45;14.43;;;8.90;;
20894;SDS011;10607;42.066;24.742;2023-08-24T02:22:10;14.07;;;9.18;;
20894;SDS011;10607;42.066;24.742;2023-08-24T02:24:35;9.32;;;8.35;;
20894;SDS011;10607;42.066;24.742;2023-08-24T02:27:01;11.15;;;8.38;;
20894;SDS011;10607;42.066;24.742;2023-08-24T02:29:26;10.05;;;8.00;;
20894;SDS011;10607;42.066;24.742;2023-08-24T02:31:52;17.33;;;8.85;;
20894;SDS011;10607;42.066;24.742;2023-08-24T02:34:18;10.52;;;9.35;;
20894;SDS011;10607;42.066;24.742;2023-08-24T02:36:43;11.43;;;9.55;;
20894;SDS011;10607;42.066;24.742;2023-08-24T02:39:08;9.90;;;8.60;;
20894;SDS011;10607;42.066;24.742;2023-08-24T02:41:34;51.47;;;10.90;;
20894;SDS011;10607;42.066;24.742;2023-08-24T02:44:00;21.52;;;9.68;;
20894;SDS011;10607;42.066;24.742;2023-08-24T02:46:25;17.98;;;9.00;;
20894;SDS011;10607;42.066;24.742;2023-08-24T02:48:50;15.85;;;9.40;;
20894;SDS011;10607;42.066;24.742;2023-08-24T02:51:15;17.10;;;8.80;;
20894;SDS011;10607;42.066;24.742;2023-08-24T02:53:41;14.95;;;9.27;;
20894;SDS011;10607;42.066;24.742;2023-08-24T02:56:06;12.30;;;9.35;;
20894;SDS011;10607;42.066;24.742;2023-08-24T02:58:31;13.07;;;8.82;;
20894;SDS011;10607;42.066;24.742;2023-08-24T03:00:57;20.02;;;9.70;;
20894;SDS011;10607;42.066;24.742;2023-08-24T03:03:23;13.82;;;9.43;;
20894;SDS011;10607;42.066;24.742;2023-08-24T03:05:54;11.38;;;9.10;;
20894;SDS011;10607;42.066;24.742;2023-08-24T03:08:20;12.95;;;9.90;;
20894;SDS011;10607;42.066;24.742;2023-08-24T03:10:45;16.05;;;10.13;;
20894;SDS011;10607;42.066;24.742;2023-08-24T03:13:10;25.50;;;9.65;;
20894;SDS011;10607;42.066;24.742;2023-08-24T03:15:36;17.92;;;9.93;;
20894;SDS011;10607;42.066;24.742;2023-08-24T03:18:02;17.73;;;9.60;;
20894;SDS011;10607;42.066;24.742;2023-08-24T03:20:27;20.85;;;9.93;;
20894;SDS011;10607;42.066;24.742;2023-08-24T03:22:52;20.00;;;10.77;;
20894;SDS011;10607;42.066;24.742;2023-08-24T03:25:18;16.60;;;9.32;;
20894;SDS011;10607;42.066;24.742;2023-08-24T03:27:43;14.38;;;9.82;;
20894;SDS011;10607;42.066;24.742;2023-08-24T03:30:08;14.23;;;9.05;;
20894;SDS011;10607;42.066;24.742;2023-08-24T03:32:34;14.27;;;9.15;;
20894;SDS011;10607;42.066;24.742;2023-08-24T03:34:59;14.57;;;8.85;;
20894;SDS011;10607;42.066;24.742;2023-08-24T03:37:25;13.70;;;9.90;;
20894;SDS011;10607;42.066;24.742;2023-08-24T03:39:50;15.60;;;9.63;;
20894;SDS011;10607;42.066;24.742;2023-08-24T03:42:16;21.55;;;9.75;;
20894;SDS011;10607;42.066;24.742;2023-08-24T03:44:41;13.57;;;9.35;;
20894;SDS011;10607;42.066;24.742;2023-08-24T03:47:06;13.23;;;9.35;;
20894;SDS011;10607;42.066;24.742;2023-08-24T03:49:32;15.35;;;9.55;;
20894;SDS011;10607;42.066;24.742;2023-08-24T03:51:57;11.52;;;9.23;;
20894;SDS011;10607;42.066;24.742;2023-08-24T03:54:22;11.00;;;9.80;;
20894;SDS011;10607;42.066;24.742;2023-08-24T03:56:48;13.68;;;9.00;;
20894;SDS011;10607;42.066;24.742;2023-08-24T03:59:13;11.40;;;8.43;;
20894;SDS011;10607;42.066;24.742;2023-08-24T04:01:39;17.98;;;9.35;;
20894;SDS011;10607;42.066;24.742;2023-08-24T04:04:04;12.73;;;8.82;;
20894;SDS011;10607;42.066;24.742;2023-08-24T04:06:29;14.27;;;8.82;;
20894;SDS011;10607;42.066;24.742;2023-08-24T04:08:54;18.77;;;9.23;;
20894;SDS011;10607;42.066;24.742;2023-08-24T04:11:20;11.15;;;9.48;;
20894;SDS011;10607;42.066;24.742;2023-08-24T04:13:45;15.95;;;9.18;;
20894;SDS011;10607;42.066;24.742;2023-08-24T04:16:11;17.55;;;9.65;;
20894;SDS011;10607;42.066;24.742;2023-08-24T04:18:36;16.02;;;9.32;;
20894;SDS011;10607;42.066;24.742;2023-08-24T04:21:01;13.38;;;9.38;;
20894;SDS011;10607;42.066;24.742;2023-08-24T04:23:27;10.10;;;8.60;;
20894;SDS011;10607;42.066;24.742;2023-08-24T04:25:52;12.52;;;9.02;;
20894;SDS011;10607;42.066;24.742;2023-08-24T04:28:18;15.02;;;9.73;;
20894;SDS011;10607;42.066;24.742;2023-08-24T04:30:54;17.75;;;8.77;;
20894;SDS011;10607;42.066;24.742;2023-08-24T04:33:19;16.15;;;9.30;;
20894;SDS011;10607;42.066;24.742;2023-08-24T04:35:48;11.50;;;9.52;;
20894;SDS011;10607;42.066;24.742;2023-08-24T04:38:14;17.88;;;9.50;;
20894;SDS011;10607;42.066;24.742;2023-08-24T04:40:47;16.25;;;9.23;;
20894;SDS011;10607;42.066;24.742;2023-08-24T04:43:13;13.98;;;9.20;;
20894;SDS011;10607;42.066;24.742;2023-08-24T04:45:38;16.70;;;9.13;;
20894;SDS011;10607;42.066;24.742;2023-08-24T04:48:03;23.23;;;9.75;;
20894;SDS011;10607;42.066;24.742;2023-08-24T04:50:29;11.23;;;9.25;;
20894;SDS011;10607;42.066;24.742;2023-08-24T04:52:54;14.57;;;9.18;;
20894;SDS011;10607;42.066;24.742;2023-08-24T04:55:19;14.95;;;9.25;;
20894;SDS011;10607;42.066;24.742;2023-08-24T04:57:45;16.45;;;9.82;;
20894;SDS011;10607;42.066;24.742;2023-08-24T05:00:10;19.00;;;9.50;;
20894;SDS011;10607;42.066;24.742;2023-08-24T05:02:41;31.77;;;10.27;;
20894;SDS011;10607;42.066;24.742;2023-08-24T05:05:06;18.17;;;10.30;;
20894;SDS011;10607;42.066;24.742;2023-08-24T05:07:32;14.13;;;9.80;;
20894;SDS011;10607;42.066;24.742;2023-08-24T05:09:57;14.35;;;9.25;;
20894;SDS011;10607;42.066;24.742;2023-08-24T05:12:22;18.73;;;10.13;;
20894;SDS011;10607;42.066;24.742;2023-08-24T05:14:47;13.27;;;10.05;;
20894;SDS011;10607;42.066;24.742;2023-08-24T05:17:13;21.38;;;10.52;;
20894;SDS011;10607;42.066;24.742;2023-08-24T05:19:38;25.48;;;10.63;;
20894;SDS011;10607;42.066;24.742;2023-08-24T05:22:03;25.50;;;10.70;;
20894;SDS011;10607;42.066;24.742;2023-08-24T05:24:29;18.00;;;10.27;;
20894;SDS011;10607;42.066;24.742;2023-08-24T05:26:54;15.85;;;10.98;;
20894;SDS011;10607;42.066;24.742;2023-08-24T05:29:19;14.77;;;10.23;;
20894;SDS011;10607;42.066;24.742;2023-08-24T05:31:44;19.40;;;10.68;;
20894;SDS011;10607;42.066;24.742;2023-08-24T05:34:10;25.10;;;10.57;;
20894;SDS011;10607;42.066;24.742;2023-08-24T05:36:35;34.92;;;11.20;;
20894;SDS011;10607;42.066;24.742;2023-08-24T05:39:00;23.10;;;10.88;;
20894;SDS011;10607;42.066;24.742;2023-08-24T05:41:25;19.05;;;9.82;;
20894;SDS011;10607;42.066;24.742;2023-08-24T05:43:51;15.95;;;9.90;;
20894;SDS011;10607;42.066;24.742;2023-08-24T05:46:18;26.70;;;10.80;;
20894;SDS011;10607;42.066;24.742;2023-08-24T05:48:43;22.77;;;10.82;;
20894;SDS011;10607;42.066;24.742;2023-08-24T05:51:08;12.82;;;9.90;;
20894;SDS011;10607;42.066;24.742;2023-08-24T05:53:35;19.38;;;10.63;;
20894;SDS011;10607;42.066;24.742;2023-08-24T05:56:00;19.08;;;10.85;;
20894;SDS011;10607;42.066;24.742;2023-08-24T05:58:25;14.38;;;10.20;;
20894;SDS011;10607;42.066;24.742;2023-08-24T06:00:58;18.30;;;11.07;;
20894;SDS011;10607;42.066;24.742;2023-08-24T06:03:24;18.55;;;10.75;;
20894;SDS011;10607;42.066;24.742;2023-08-24T06:05:49;16.65;;;10.02;;
20894;SDS011;10607;42.066;24.742;2023-08-24T06:08:14;23.35;;;10.73;;
20894;SDS011;10607;42.066;24.742;2023-08-24T06:10:39;22.33;;;10.52;;
20894;SDS011;10607;42.066;24.742;2023-08-24T06:13:06;16.85;;;10.07;;
20894;SDS011;10607;42.066;24.742;2023-08-24T06:15:31;20.85;;;10.55;;
20894;SDS011;10607;42.066;24.742;2023-08-24T06:17:56;23.58;;;11.35;;
20894;SDS011;10607;42.066;24.742;2023-08-24T06:20:24;18.85;;;10.32;;
20894;SDS011;10607;42.066;24.742;2023-08-24T06:22:49;13.02;;;10.52;;
20894;SDS011;10607;42.066;24.742;2023-08-24T06:25:15;14.40;;;10.50;;
20894;SDS011;10607;42.066;24.742;2023-08-24T06:27:40;16.58;;;10.10;;
20894;SDS011;10607;42.066;24.742;2023-08-24T06:30:06;20.42;;;11.10;;
20894;SDS011;10607;42.066;24.742;2023-08-24T06:32:31;17.08;;;9.60;;
20894;SDS011;10607;42.066;24.742;2023-08-24T06:34:56;14.27;;;10.73;;
20894;SDS011;10607;42.066;24.742;2023-08-24T06:37:22;29.98;;;12.07;;
20894;SDS011;10607;42.066;24.742;2023-08-24T06:39:47;27.52;;;9.98;;
20894;SDS011;10607;42.066;24.742;2023-08-24T06:42:12;23.98;;;10.57;;
20894;SDS011;10607;42.066;24.742;2023-08-24T06:44:38;16.75;;;11.07;;
20894;SDS011;10607;42.066;24.742;2023-08-24T06:47:03;25.35;;;10.00;;
20894;SDS011;10607;42.066;24.742;2023-08-24T06:49:28;14.90;;;11.38;;
20894;SDS011;10607;42.066;24.742;2023-08-24T06:51:54;17.75;;;10.93;;
20894;SDS011;10607;42.066;24.742;2023-08-24T06:54:19;14.80;;;10.68;;
20894;SDS011;10607;42.066;24.742;2023-08-24T06:56:44;19.77;;;10.25;;
20894;SDS011;10607;42.066;24.742;2023-08-24T06:59:10;14.50;;;9.65;;
20894;SDS011;10607;42.066;24.742;2023-08-24T07:01:38;18.77;;;9.90;;
20894;SDS011;10607;42.066;24.742;2023-08-24T07:04:03;19.58;;;10.57;;
20894;SDS011;10607;42.066;24.742;2023-08-24T07:06:28;21.40;;;10.18;;
20894;SDS011;10607;42.066;24.742;2023-08-24T07:08:54;21.58;;;9.85;;
20894;SDS011;10607;42.066;24.742;2023-08-24T07:11:19;28.67;;;11.75;;
20894;SDS011;10607;42.066;24.742;2023-08-24T07:13:45;27.27;;;10.85;;
20894;SDS011;10607;42.066;24.742;2023-08-24T07:16:11;27.08;;;11.60;;
20894;SDS011;10607;42.066;24.742;2023-08-24T07:18:36;26.95;;;11.95;;
20894;SDS011;10607;42.066;24.742;2023-08-24T07:21:01;23.50;;;12.48;;
20894;SDS011;10607;42.066;24.742;2023-08-24T07:23:27;25.25;;;13.02;;
20894;SDS011;10607;42.066;24.742;2023-08-24T07:25:52;26.52;;;13.73;;
20894;SDS011;10607;42.066;24.742;2023-08-24T07:28:17;24.80;;;13.02;;
20894;SDS011;10607;42.066;24.742;2023-08-24T07:30:42;16.33;;;12.15;;
20894;SDS011;10607;42.066;24.742;2023-08-24T07:33:08;18.23;;;11.90;;
20894;SDS011;10607;42.066;24.742;2023-08-24T07:35:33;18.65;;;10.93;;
20894;SDS011;10607;42.066;24.742;2023-08-24T07:37:59;14.32;;;10.07;;
20894;SDS011;10607;42.066;24.742;2023-08-24T07:40:25;14.05;;;9.48;;
20894;SDS011;10607;42.066;24.742;2023-08-24T07:42:51;12.00;;;9.10;;
20894;SDS011;10607;42.066;24.742;2023-08-24T07:45:21;11.18;;;8.88;;
20894;SDS011;10607;42.066;24.742;2023-08-24T07:47:48;18.10;;;9.15;;
20894;SDS011;10607;42.066;24.742;2023-08-24T07:50:13;12.68;;;7.93;;
20894;SDS011;10607;42.066;24.742;2023-08-24T07:52:38;8.98;;;7.60;;
20894;SDS011;10607;42.066;24.742;2023-08-24T07:55:04;11.88;;;7.03;;
20894;SDS011;10607;42.066;24.742;2023-08-24T07:57:30;10.50;;;7.60;;
20894;SDS011;10607;42.066;24.742;2023-08-24T07:59:56;12.63;;;7.40;;
20894;SDS011;10607;42.066;24.742;2023-08-24T08:02:22;13.90;;;6.82;;
20894;SDS011;10607;42.066;24.742;2023-08-24T08:04:47;17.48;;;6.72;;
20894;SDS011;10607;42.066;24.742;2023-08-24T08:07:13;9.80;;;6.18;;
20894;SDS011;10607;42.066;24.742;2023-08-24T08:09:38;13.50;;;6.00;;
20894;SDS011;10607;42.066;24.742;2023-08-24T08:12:03;6.32;;;5.47;;
20894;SDS011;10607;42.066;24.742;2023-08-24T08:14:29;11.90;;;5.45;;
20894;SDS011;10607;42.066;24.742;2023-08-24T08:16:54;8.60;;;4.45;;
20894;SDS011;10607;42.066;24.742;2023-08-24T08:19:19;12.90;;;3.90;;
20894;SDS011;10607;42.066;24.742;2023-08-24T08:21:46;6.88;;;3.75;;
20894;SDS011;10607;42.066;24.742;2023-08-24T08:24:12;13.55;;;3.10;;
20894;SDS011;10607;42.066;24.742;2023-08-24T08:26:37;5.53;;;3.10;;
20894;SDS011;10607;42.066;24.742;2023-08-24T08:29:03;2.75;;;2.33;;
20894;SDS011;10607;42.066;24.742;2023-08-24T08:31:28;6.75;;;2.75;;
20894;SDS011;10607;42.066;24.742;2023-08-24T08:33:53;3.10;;;2.33;;
20894;SDS011;10607;42.066;24.742;2023-08-24T08:36:19;6.00;;;2.80;;
20894;SDS011;10607;42.066;24.742;2023-08-24T08:38:44;4.32;;;2.97;;
20894;SDS011;10607;42.066;24.742;2023-08-24T08:41:09;3.00;;;2.70;;
20894;SDS011;10607;42.066;24.742;2023-08-24T08:43:35;5.13;;;3.38;;
20894;SDS011;10607;42.066;24.742;2023-08-24T08:46:03;6.68;;;4.10;;
20894;SDS011;10607;42.066;24.742;2023-08-24T08:48:30;4.10;;;3.78;;
20894;SDS011;10607;42.066;24.742;2023-08-24T08:50:57;3.67;;;3.30;;
20894;SDS011;10607;42.066;24.742;2023-08-24T08:53:22;6.70;;;3.75;;
20894;SDS011;10607;42.066;24.742;2023-08-24T08:55:51;5.05;;;4.45;;
20894;SDS011;10607;42.066;24.742;2023-08-24T08:58:18;6.43;;;4.70;;
20894;SDS011;10607;42.066;24.742;2023-08-24T09:00:44;6.88;;;4.82;;
20894;SDS011;10607;42.066;24.742;2023-08-24T09:03:11;6.20;;;4.95;;
20894;SDS011;10607;42.066;24.742;2023-08-24T09:05:36;12.52;;;5.57;;
20894;SDS011;10607;42.066;24.742;2023-08-24T09:08:02;7.93;;;4.78;;
20894;SDS011;10607;42.066;24.742;2023-08-24T09:10:29;9.85;;;4.72;;
20894;SDS011;10607;42.066;24.742;2023-08-24T09:12:54;8.57;;;5.40;;
20894;SDS011;10607;42.066;24.742;2023-08-24T09:15:26;8.60;;;4.45;;
20894;SDS011;10607;42.066;24.742;2023-08-24T09:17:51;10.85;;;4.90;;
20894;SDS011;10607;42.066;24.742;2023-08-24T09:20:17;8.95;;;4.70;;
20894;SDS011;10607;42.066;24.742;2023-08-24T09:22:42;8.27;;;5.63;;
20894;SDS011;10607;42.066;24.742;2023-08-24T09:25:09;9.35;;;5.25;;
20894;SDS011;10607;42.066;24.742;2023-08-24T09:27:35;7.85;;;5.38;;
20894;SDS011;10607;42.066;24.742;2023-08-24T09:30:00;7.22;;;4.75;;
20894;SDS011;10607;42.066;24.742;2023-08-24T09:32:29;7.15;;;5.10;;
20894;SDS011;10607;42.066;24.742;2023-08-24T09:34:54;8.27;;;4.80;;
20894;SDS011;10607;42.066;24.742;2023-08-24T09:37:20;6.65;;;5.50;;
20894;SDS011;10607;42.066;24.742;2023-08-24T09:39:45;10.68;;;4.72;;
20894;SDS011;10607;42.066;24.742;2023-08-24T09:42:11;13.98;;;5.82;;
20894;SDS011;10607;42.066;24.742;2023-08-24T09:44:37;14.38;;;5.95;;
20894;SDS011;10607;42.066;24.742;2023-08-24T09:47:08;10.52;;;5.65;;
20894;SDS011;10607;42.066;24.742;2023-08-24T09:49:33;11.95;;;5.80;;
20894;SDS011;10607;42.066;24.742;2023-08-24T09:51:59;12.90;;;7.00;;
20894;SDS011;10607;42.066;24.742;2023-08-24T09:54:26;13.20;;;5.72;;
20894;SDS011;10607;42.066;24.742;2023-08-24T09:56:55;18.17;;;5.97;;
20894;SDS011;10607;42.066;24.742;2023-08-24T09:59:21;8.07;;;6.13;;
20894;SDS011;10607;42.066;24.742;2023-08-24T10:01:49;14.40;;;5.80;;
20894;SDS011;10607;42.066;24.742;2023-08-24T10:04:17;8.25;;;5.53;;
20894;SDS011;10607;42.066;24.742;2023-08-24T10:06:44;7.72;;;5.15;;
20894;SDS011;10607;42.066;24.742;2023-08-24T10:09:14;14.30;;;5.53;;
20894;SDS011;10607;42.066;24.742;2023-08-24T10:11:47;7.25;;;5.50;;
20894;SDS011;10607;42.066;24.742;2023-08-24T10:16:58;9.57;;;5.95;;
20894;SDS011;10607;42.066;24.742;2023-08-24T10:19:23;9.15;;;6.38;;
20894;SDS011;10607;42.066;24.742;2023-08-24T10:21:49;14.30;;;6.70;;
20894;SDS011;10607;42.066;24.742;2023-08-24T10:24:18;11.98;;;5.68;;
20894;SDS011;10607;42.066;24.742;2023-08-24T10:26:46;14.02;;;6.40;;
20894;SDS011;10607;42.066;24.742;2023-08-24T10:29:11;10.45;;;6.05;;
20894;SDS011;10607;42.066;24.742;2023-08-24T10:31:37;15.07;;;6.50;;
20894;SDS011;10607;42.066;24.742;2023-08-24T10:34:04;8.60;;;5.63;;
20894;SDS011;10607;42.066;24.742;2023-08-24T10:36:30;9.73;;;6.55;;
20894;SDS011;10607;42.066;24.742;2023-08-24T10:38:56;24.48;;;6.82;;
20894;SDS011;10607;42.066;24.742;2023-08-24T10:41:27;15.85;;;6.93;;
20894;SDS011;10607;42.066;24.742;2023-08-24T10:43:52;15.93;;;7.43;;
20894;SDS011;10607;42.066;24.742;2023-08-24T10:46:28;12.10;;;6.75;;
20894;SDS011;10607;42.066;24.742;2023-08-24T10:48:59;7.80;;;6.10;;
20894;SDS011;10607;42.066;24.742;2023-08-24T10:51:25;14.07;;;7.68;;
20894;SDS011;10607;42.066;24.742;2023-08-24T10:53:58;14.27;;;7.47;;
20894;SDS011;10607;42.066;24.742;2023-08-24T10:56:37;12.07;;;7.90;;
20894;SDS011;10607;42.066;24.742;2023-08-24T10:59:15;8.80;;;7.10;;
20894;SDS011;10607;42.066;24.742;2023-08-24T11:01:41;10.57;;;6.10;;
20894;SDS011;10607;42.066;24.742;2023-08-24T11:04:07;8.60;;;6.90;;
20894;SDS011;10607;42.066;24.742;2023-08-24T11:06:50;10.70;;;6.72;;
20894;SDS011;10607;42.066;24.742;2023-08-24T11:09:16;23.33;;;6.43;;
20894;SDS011;10607;42.066;24.742;2023-08-24T11:11:42;11.13;;;5.72;;
20894;SDS011;10607;42.066;24.742;2023-08-24T11:14:14;13.48;;;6.13;;
20894;SDS011;10607;42.066;24.742;2023-08-24T11:16:45;31.05;;;7.10;;
20894;SDS011;10607;42.066;24.742;2023-08-24T11:19:11;13.32;;;6.28;;
20894;SDS011;10607;42.066;24.742;2023-08-24T11:21:37;8.07;;;5.63;;
20894;SDS011;10607;42.066;24.742;2023-08-24T11:24:03;20.25;;;6.32;;
20894;SDS011;10607;42.066;24.742;2023-08-24T11:26:29;13.25;;;6.22;;
20894;SDS011;10607;42.066;24.742;2023-08-24T11:28:55;12.73;;;6.75;;
20894;SDS011;10607;42.066;24.742;2023-08-24T11:31:22;16.98;;;6.30;;
20894;SDS011;10607;42.066;24.742;2023-08-24T11:33:48;13.70;;;5.63;;
20894;SDS011;10607;42.066;24.742;2023-08-24T11:36:13;11.05;;;5.60;;
20894;SDS011;10607;42.066;24.742;2023-08-24T11:38:41;10.25;;;5.45;;
20894;SDS011;10607;42.066;24.742;2023-08-24T11:41:13;10.73;;;5.82;;
20894;SDS011;10607;42.066;24.742;2023-08-24T11:43:39;12.27;;;5.20;;
20894;SDS011;10607;42.066;24.742;2023-08-24T11:46:04;11.10;;;5.68;;
20894;SDS011;10607;42.066;24.742;2023-08-24T11:48:30;22.58;;;6.10;;
20894;SDS011;10607;42.066;24.742;2023-08-24T11:50:57;6.95;;;5.70;;
20894;SDS011;10607;42.066;24.742;2023-08-24T11:53:23;7.68;;;5.55;;
20894;SDS011;10607;42.066;24.742;2023-08-24T11:55:49;6.38;;;5.78;;
20894;SDS011;10607;42.066;24.742;2023-08-24T11:58:15;11.88;;;5.82;;
20894;SDS011;10607;42.066;24.742;2023-08-24T12:00:41;16.95;;;6.32;;
20894;SDS011;10607;42.066;24.742;2023-08-24T12:03:06;6.35;;;5.43;;
20894;SDS011;10607;42.066;24.742;2023-08-24T12:05:32;10.10;;;5.57;;
20894;SDS011;10607;42.066;24.742;2023-08-24T12:07:57;23.23;;;6.70;;
20894;SDS011;10607;42.066;24.742;2023-08-24T12:10:22;9.40;;;5.40;;
20894;SDS011;10607;42.066;24.742;2023-08-24T12:12:48;15.93;;;5.90;;
20894;SDS011;10607;42.066;24.742;2023-08-24T12:15:20;12.32;;;5.78;;
20894;SDS011;10607;42.066;24.742;2023-08-24T12:17:48;8.88;;;5.47;;
20894;SDS011;10607;42.066;24.742;2023-08-24T12:20:20;11.98;;;5.60;;
20894;SDS011;10607;42.066;24.742;2023-08-24T12:22:49;8.23;;;5.65;;
20894;SDS011;10607;42.066;24.742;2023-08-24T12:25:16;9.30;;;5.43;;
20894;SDS011;10607;42.066;24.742;2023-08-24T12:27:41;6.70;;;5.35;;
20894;SDS011;10607;42.066;24.742;2023-08-24T12:30:07;7.00;;;5.55;;
20894;SDS011;10607;42.066;24.742;2023-08-24T12:32:45;8.43;;;5.65;;
20894;SDS011;10607;42.066;24.742;2023-08-24T12:35:11;8.30;;;6.13;;
20894;SDS011;10607;42.066;24.742;2023-08-24T12:37:36;7.07;;;5.82;;
20894;SDS011;10607;42.066;24.742;2023-08-24T12:40:02;9.70;;;5.95;;
20894;SDS011;10607;42.066;24.742;2023-08-24T12:42:29;7.78;;;5.68;;
20894;SDS011;10607;42.066;24.742;2023-08-24T12:44:55;26.73;;;6.13;;
20894;SDS011;10607;42.066;24.742;2023-08-24T12:47:20;7.35;;;5.95;;
20894;SDS011;10607;42.066;24.742;2023-08-24T12:49:46;17.52;;;6.75;;
20894;SDS011;10607;42.066;24.742;2023-08-24T12:52:11;9.80;;;6.07;;
20894;SDS011;10607;42.066;24.742;2023-08-24T12:54:37;14.13;;;6.38;;
20894;SDS011;10607;42.066;24.742;2023-08-24T12:57:02;21.33;;;6.00;;
20894;SDS011;10607;42.066;24.742;2023-08-24T12:59:27;15.63;;;5.43;;
20894;SDS011;10607;42.066;24.742;2023-08-24T13:01:53;69.13;;;8.63;;
20894;SDS011;10607;42.066;24.742;2023-08-24T13:04:18;5.47;;;4.80;;
20894;SDS011;10607;42.066;24.742;2023-08-24T13:06:43;12.15;;;5.88;;
20894;SDS011;10607;42.066;24.742;2023-08-24T13:09:08;12.63;;;4.80;;
20894;SDS011;10607;42.066;24.742;2023-08-24T13:11:34;9.68;;;5.30;;
20894;SDS011;10607;42.066;24.742;2023-08-24T13:13:59;7.30;;;4.95;;
20894;SDS011;10607;42.066;24.742;2023-08-24T13:16:25;8.73;;;4.93;;
20894;SDS011;10607;42.066;24.742;2023-08-24T13:18:52;8.00;;;5.20;;
20894;SDS011;10607;42.066;24.742;2023-08-24T13:21:18;36.00;;;5.75;;
20894;SDS011;10607;42.066;24.742;2023-08-24T13:23:43;15.05;;;5.18;;
20894;SDS011;10607;42.066;24.742;2023-08-24T13:26:16;13.40;;;5.93;;
20894;SDS011;10607;42.066;24.742;2023-08-24T13:28:42;9.30;;;4.65;;
20894;SDS011;10607;42.066;24.742;2023-08-24T13:31:07;8.02;;;5.03;;
20894;SDS011;10607;42.066;24.742;2023-08-24T13:33:33;5.88;;;4.65;;
20894;SDS011;10607;42.066;24.742;2023-08-24T13:35:58;7.28;;;4.97;;
20894;SDS011;10607;42.066;24.742;2023-08-24T13:38:23;10.57;;;5.28;;
20894;SDS011;10607;42.066;24.742;2023-08-24T13:40:49;8.48;;;4.90;;
20894;SDS011;10607;42.066;24.742;2023-08-24T13:43:15;11.43;;;5.32;;
20894;SDS011;10607;42.066;24.742;2023-08-24T13:45:40;8.43;;;5.13;;
20894;SDS011;10607;42.066;24.742;2023-08-24T13:48:05;7.82;;;5.00;;
20894;SDS011;10607;42.066;24.742;2023-08-24T13:50:31;8.50;;;5.45;;
20894;SDS011;10607;42.066;24.742;2023-08-24T13:52:56;9.65;;;5.40;;
20894;SDS011;10607;42.066;24.742;2023-08-24T13:55:22;10.23;;;5.25;;
20894;SDS011;10607;42.066;24.742;2023-08-24T13:57:47;8.27;;;5.50;;
20894;SDS011;10607;42.066;24.742;2023-08-24T14:00:12;9.27;;;5.45;;
20894;SDS011;10607;42.066;24.742;2023-08-24T14:02:38;10.73;;;5.60;;
20894;SDS011;10607;42.066;24.742;2023-08-24T14:05:03;12.73;;;6.03;;
20894;SDS011;10607;42.066;24.742;2023-08-24T14:07:31;10.00;;;5.63;;
20894;SDS011;10607;42.066;24.742;2023-08-24T14:09:56;10.52;;;6.32;;
20894;SDS011;10607;42.066;24.742;2023-08-24T14:12:21;10.02;;;5.80;;
20894;SDS011;10607;42.066;24.742;2023-08-24T14:14:47;10.77;;;5.65;;
20894;SDS011;10607;42.066;24.742;2023-08-24T14:17:12;6.85;;;6.07;;
20894;SDS011;10607;42.066;24.742;2023-08-24T14:19:37;7.88;;;6.20;;
20894;SDS011;10607;42.066;24.742;2023-08-24T14:22:02;8.38;;;6.50;;
20894;SDS011;10607;42.066;24.742;2023-08-24T14:24:28;15.95;;;6.35;;